createdAt,value
2019-05-13T00:01:43.506Z,8.20
2019-05-13T00:04:14.096Z,8.20
2019-05-13T00:06:51.306Z,8.10
2019-05-13T00:09:14.120Z,8.10
2019-05-13T00:11:43.742Z,8.00
2019-05-13T00:14:13.380Z,8.00
2019-05-13T00:16:44.706Z,8.00
2019-05-13T00:19:14.268Z,8.00
2019-05-13T00:21:44.468Z,8.00
2019-05-13T00:24:13.830Z,7.90
2019-05-13T00:26:44.498Z,7.90
2019-05-13T00:29:14.188Z,7.90
2019-05-13T00:31:47.915Z,7.90
2019-05-13T00:34:16.390Z,7.90
2019-05-13T00:36:44.914Z,7.80
2019-05-13T00:39:15.362Z,7.80
2019-05-13T00:41:44.249Z,7.70
2019-05-13T00:44:14.239Z,7.70
2019-05-13T00:46:44.214Z,7.70
2019-05-13T00:49:13.407Z,7.60
2019-05-13T00:51:44.501Z,7.60
2019-05-13T00:54:13.273Z,7.60
2019-05-13T00:56:43.593Z,7.60
2019-05-13T00:59:14.160Z,7.60
2019-05-13T01:01:44.107Z,7.60
2019-05-13T01:04:14.311Z,7.60
2019-05-13T01:06:43.641Z,7.50
2019-05-13T01:09:14.398Z,7.40
2019-05-13T01:11:43.757Z,7.40
2019-05-13T01:14:14.392Z,7.40
2019-05-13T01:16:44.390Z,7.30
2019-05-13T01:19:14.370Z,7.30
2019-05-13T01:21:43.532Z,7.30
2019-05-13T01:24:14.496Z,7.20
2019-05-13T01:26:43.791Z,7.20
2019-05-13T01:29:13.475Z,7.10
2019-05-13T01:31:43.436Z,7.10
2019-05-13T01:34:14.271Z,7.10
2019-05-13T01:36:44.673Z,7.10
2019-05-13T01:39:13.843Z,7.00
2019-05-13T01:41:43.856Z,7.00
2019-05-13T01:44:13.972Z,7.00
2019-05-13T01:46:43.746Z,7.00
2019-05-13T01:49:13.685Z,7.00
2019-05-13T01:51:50.079Z,7.00
2019-05-13T01:54:24.466Z,6.90
2019-05-13T01:56:53.548Z,6.90
2019-05-13T01:59:23.912Z,6.90
2019-05-13T02:01:54.100Z,6.80
2019-05-13T02:04:24.426Z,6.80
2019-05-13T02:06:54.327Z,6.70
2019-05-13T02:09:24.418Z,6.70
2019-05-13T02:11:53.926Z,6.70
2019-05-13T02:14:23.710Z,6.70
2019-05-13T02:16:53.547Z,6.60
2019-05-13T02:19:24.315Z,6.60
2019-05-13T02:21:54.325Z,6.60
2019-05-13T02:24:23.659Z,6.60
2019-05-13T02:26:54.304Z,6.60
2019-05-13T02:29:24.537Z,6.60
2019-05-13T02:31:56.118Z,6.50
2019-05-13T02:34:23.422Z,6.50
2019-05-13T02:36:52.802Z,6.50
2019-05-13T02:39:22.266Z,6.40
2019-05-13T02:41:52.609Z,6.40
2019-05-13T02:44:22.549Z,6.40
2019-05-13T02:46:52.494Z,6.40
2019-05-13T02:49:23.192Z,6.40
2019-05-13T02:51:54.570Z,6.40
2019-05-13T02:54:26.766Z,6.30
2019-05-13T02:56:55.297Z,6.30
2019-05-13T02:59:23.788Z,6.30
2019-05-13T03:01:53.280Z,6.30
2019-05-13T03:04:23.404Z,6.20
2019-05-13T03:06:52.532Z,6.20
2019-05-13T03:09:22.990Z,6.20
2019-05-13T03:11:53.610Z,6.20
2019-05-13T03:14:23.872Z,6.10
2019-05-13T03:16:53.313Z,6.10
2019-05-13T03:19:22.588Z,6.10
2019-05-13T03:21:52.434Z,6.10
2019-05-13T03:24:23.072Z,6.00
2019-05-13T03:26:53.295Z,6.00
2019-05-13T03:29:22.397Z,6.00
2019-05-13T03:31:55.711Z,6.00
2019-05-13T03:34:26.361Z,6.10
2019-05-13T03:36:57.211Z,6.10
2019-05-13T03:39:23.124Z,6.00
2019-05-13T03:41:53.831Z,6.00
2019-05-13T03:44:23.976Z,6.00
2019-05-13T03:46:54.613Z,6.00
2019-05-13T03:49:26.188Z,6.00
2019-05-13T03:51:55.303Z,5.90
2019-05-13T03:54:23.846Z,5.90
2019-05-13T03:56:53.196Z,5.90
2019-05-13T03:59:22.651Z,5.90
2019-05-13T04:01:52.645Z,5.90
2019-05-13T04:04:23.448Z,5.80
2019-05-13T04:06:53.002Z,5.80
2019-05-13T04:09:30.670Z,5.90
2019-05-13T04:11:52.740Z,5.90
2019-05-13T04:14:22.965Z,5.90
2019-05-13T04:16:53.401Z,5.90
2019-05-13T04:19:23.446Z,5.90
2019-05-13T04:21:53.059Z,5.90
2019-05-13T04:24:22.907Z,5.90
2019-05-13T04:26:53.363Z,5.90
2019-05-13T04:29:23.476Z,5.90
2019-05-13T04:31:53.324Z,5.90
2019-05-13T04:34:23.150Z,5.80
2019-05-13T04:36:52.863Z,5.90
2019-05-13T04:39:39.663Z,5.90
2019-05-13T04:41:52.911Z,5.90
2019-05-13T04:44:23.974Z,6.00
2019-05-13T04:46:52.382Z,6.00
2019-05-13T04:49:23.229Z,6.00
2019-05-13T04:51:52.426Z,6.10
2019-05-13T04:54:22.769Z,6.30
2019-05-13T04:56:52.736Z,7.00
2019-05-13T04:59:22.797Z,8.10
2019-05-13T05:02:13.484Z,9.20
2019-05-13T05:04:54.277Z,10.00
2019-05-13T05:07:34.912Z,10.80
2019-05-13T05:10:33.773Z,11.70
2019-05-13T05:13:22.118Z,12.10
2019-05-13T05:16:22.832Z,12.20
2019-05-13T05:19:27.473Z,12.30
2019-05-13T05:22:18.691Z,12.60
2019-05-13T05:25:05.382Z,12.70
2019-05-13T05:27:42.810Z,12.40
2019-05-13T05:30:21.694Z,11.80
2019-05-13T05:33:07.678Z,11.40
2019-05-13T05:35:57.430Z,11.00
2019-05-13T05:38:54.325Z,10.80
2019-05-13T05:41:25.032Z,11.10
2019-05-13T05:43:55.520Z,11.50
2019-05-13T05:46:24.912Z,12.30
2019-05-13T05:48:55.308Z,13.20
2019-05-13T05:51:25.768Z,14.00
2019-05-13T05:53:57.583Z,14.50
2019-05-13T05:56:29.238Z,15.30
2019-05-13T05:59:02.555Z,15.90
2019-05-13T06:01:32.516Z,16.20
2019-05-13T06:04:01.527Z,16.40
2019-05-13T06:06:32.903Z,17.20
2019-05-13T06:09:01.899Z,17.30
2019-05-13T06:11:32.793Z,17.40
2019-05-13T06:14:02.384Z,17.50
2019-05-13T06:16:32.045Z,17.80
2019-05-13T06:19:01.529Z,18.50
2019-05-13T06:21:32.158Z,19.10
2019-05-13T06:24:02.763Z,19.50
2019-05-13T06:26:31.518Z,19.70
2019-05-13T06:29:02.549Z,19.90
2019-05-13T06:31:32.348Z,19.90
2019-05-13T06:34:02.032Z,19.80
2019-05-13T06:36:31.769Z,19.60
2019-05-13T06:39:02.239Z,19.80
2019-05-13T06:41:32.299Z,19.30
2019-05-13T06:44:02.157Z,18.60
2019-05-13T06:46:32.353Z,18.80
2019-05-13T06:49:02.900Z,19.10
2019-05-13T06:51:31.470Z,19.70
2019-05-13T06:54:02.373Z,19.90
2019-05-13T06:56:32.280Z,19.90
2019-05-13T06:59:01.564Z,20.10
2019-05-13T07:01:32.266Z,20.10
2019-05-13T07:04:02.401Z,20.30
2019-05-13T07:06:32.360Z,20.10
2019-05-13T07:09:01.524Z,19.50
2019-05-13T07:11:31.417Z,19.40
2019-05-13T07:14:02.460Z,20.00
2019-05-13T07:16:31.719Z,20.80
2019-05-13T07:19:02.618Z,21.10
2019-05-13T07:21:32.343Z,20.80
2019-05-13T07:24:02.222Z,20.50
2019-05-13T07:26:31.595Z,20.40
2019-05-13T07:29:20.299Z,20.30
2019-05-13T07:31:52.057Z,20.50
2019-05-13T07:34:24.127Z,20.70
2019-05-13T07:36:51.274Z,20.80
2019-05-13T07:39:22.325Z,20.70
2019-05-13T07:41:52.061Z,20.90
2019-05-13T07:44:22.347Z,20.50
2019-05-13T07:46:52.335Z,20.10
2019-05-13T07:49:22.541Z,20.20
2019-05-13T07:51:52.119Z,20.90
2019-05-13T07:54:22.146Z,22.10
2019-05-13T07:56:52.334Z,22.70
2019-05-13T07:59:21.255Z,22.70
2019-05-13T08:01:52.158Z,22.40
2019-05-13T08:04:23.689Z,22.60
2019-05-13T08:06:52.407Z,23.00
2019-05-13T08:09:21.623Z,22.60
2019-05-13T08:12:02.340Z,22.50
2019-05-13T08:14:21.799Z,21.90
2019-05-13T08:16:51.796Z,21.40
2019-05-13T08:19:21.816Z,20.70
2019-05-13T08:21:51.366Z,20.30
2019-05-13T08:24:22.696Z,20.30
2019-05-13T08:26:53.066Z,20.50
2019-05-13T08:29:21.616Z,20.80
2019-05-13T08:31:51.801Z,21.00
2019-05-13T08:34:25.305Z,21.40
2019-05-13T08:37:03.424Z,21.80
2019-05-13T08:39:38.638Z,21.30
2019-05-13T08:42:15.644Z,21.10
2019-05-13T08:44:37.738Z,21.20
2019-05-13T08:47:12.053Z,21.40
2019-05-13T08:49:41.447Z,20.90
2019-05-13T08:52:12.078Z,20.60
2019-05-13T08:54:41.761Z,20.30
2019-05-13T08:57:11.787Z,20.20
2019-05-13T08:59:42.177Z,19.90
2019-05-13T09:02:14.153Z,19.70
2019-05-13T09:04:42.674Z,19.90
2019-05-13T09:07:12.174Z,19.50
2019-05-13T09:09:41.982Z,18.90
2019-05-13T09:12:11.616Z,18.60
2019-05-13T09:14:46.329Z,19.10
2019-05-13T09:17:15.913Z,19.30
2019-05-13T09:19:44.443Z,19.00
2019-05-13T09:22:12.965Z,18.80
2019-05-13T09:24:42.474Z,18.70
2019-05-13T09:27:12.164Z,18.40
2019-05-13T09:29:42.755Z,18.40
2019-05-13T09:32:12.107Z,18.10
2019-05-13T09:34:42.245Z,17.60
2019-05-13T09:37:11.865Z,17.20
2019-05-13T09:39:41.554Z,17.00
2019-05-13T09:42:12.698Z,17.00
2019-05-13T09:44:41.970Z,17.10
2019-05-13T09:47:12.412Z,16.90
2019-05-13T09:49:42.031Z,16.90
2019-05-13T09:52:12.027Z,16.90
2019-05-13T09:54:42.479Z,16.70
2019-05-13T09:57:12.132Z,16.50
2019-05-13T09:59:42.189Z,16.30
2019-05-13T10:02:12.490Z,16.20
2019-05-13T10:04:43.609Z,16.40
2019-05-13T10:07:12.455Z,16.60
2019-05-13T10:09:42.895Z,16.40
2019-05-13T10:12:12.374Z,16.20
2019-05-13T10:14:41.870Z,16.20
2019-05-13T10:17:12.768Z,16.30
2019-05-13T10:19:42.067Z,16.30
2019-05-13T10:22:12.032Z,16.30
2019-05-13T10:24:42.226Z,16.50
2019-05-13T10:27:12.687Z,16.70
2019-05-13T10:29:42.495Z,16.70
2019-05-13T10:32:11.538Z,16.70
2019-05-13T10:34:42.573Z,16.50
2019-05-13T10:37:11.563Z,16.40
2019-05-13T10:39:40.415Z,16.30
2019-05-13T10:42:11.816Z,16.50
2019-05-13T10:44:39.080Z,16.70
2019-05-13T10:47:07.650Z,16.80
2019-05-13T10:49:36.187Z,16.80
2019-05-13T10:52:04.798Z,16.70
2019-05-13T10:54:33.278Z,16.80
2019-05-13T10:57:04.056Z,16.90
2019-05-13T10:59:32.458Z,17.00
2019-05-13T11:02:02.174Z,16.90
2019-05-13T11:04:32.692Z,16.80
2019-05-13T11:07:03.046Z,16.60
2019-05-13T11:09:32.679Z,16.70
2019-05-13T11:12:02.180Z,16.70
2019-05-13T11:14:32.379Z,16.50
2019-05-13T11:17:01.765Z,16.50
2019-05-13T11:19:36.111Z,16.40
2019-05-13T11:22:02.741Z,16.60
2019-05-13T11:24:32.418Z,16.70
2019-05-13T11:27:02.800Z,16.70
2019-05-13T11:29:32.540Z,16.80
2019-05-13T11:32:02.741Z,16.70
2019-05-13T11:34:32.925Z,16.60
2019-05-13T11:37:03.614Z,16.50
2019-05-13T11:39:32.751Z,16.50
2019-05-13T11:42:02.391Z,16.50
2019-05-13T11:44:32.319Z,16.60
2019-05-13T11:47:02.351Z,16.70
2019-05-13T11:49:31.732Z,16.90
2019-05-13T11:52:02.783Z,17.00
2019-05-13T11:54:30.829Z,17.10
2019-05-13T11:57:04.043Z,17.10
2019-05-13T11:59:32.679Z,17.10
2019-05-13T12:02:04.626Z,17.00
2019-05-13T12:04:34.359Z,16.80
2019-05-13T12:07:03.605Z,16.80
2019-05-13T12:09:32.022Z,16.90
2019-05-13T12:12:03.195Z,16.90
2019-05-13T12:14:44.175Z,16.90
2019-05-13T12:17:02.306Z,16.90
2019-05-13T12:19:32.011Z,17.00
2019-05-13T12:22:02.744Z,17.00
2019-05-13T12:24:30.724Z,17.40
2019-05-13T12:26:59.289Z,17.80
2019-05-13T12:29:27.813Z,17.80
2019-05-13T12:31:56.781Z,17.60
2019-05-13T12:34:25.344Z,17.50
2019-05-13T12:36:53.841Z,17.40
2019-05-13T12:39:23.897Z,17.40
2019-05-13T12:41:53.904Z,17.50
2019-05-13T12:44:23.288Z,17.80
2019-05-13T12:46:54.210Z,18.00
2019-05-13T12:49:22.612Z,18.10
2019-05-13T12:51:51.665Z,18.10
2019-05-13T12:54:23.441Z,18.10
2019-05-13T12:56:56.514Z,18.00
2019-05-13T12:59:28.223Z,17.80
2019-05-13T13:01:58.462Z,17.80
2019-05-13T13:04:33.635Z,17.80
2019-05-13T13:07:01.431Z,17.80
2019-05-13T13:09:32.579Z,17.90
2019-05-13T13:12:00.362Z,17.90
2019-05-13T13:14:36.336Z,17.80
2019-05-13T13:17:03.450Z,17.70
2019-05-13T13:19:41.190Z,17.60
2019-05-13T13:22:18.417Z,17.70
2019-05-13T13:24:57.301Z,17.70
2019-05-13T13:30:02.838Z,17.60
2019-05-13T13:32:25.287Z,17.60
2019-05-13T13:34:55.049Z,17.50
2019-05-13T13:37:24.112Z,17.50
2019-05-13T13:39:55.223Z,17.50
2019-05-13T13:42:22.938Z,17.40
2019-05-13T13:44:53.712Z,17.40
2019-05-13T13:47:24.238Z,17.30
2019-05-13T13:49:53.150Z,17.30
2019-05-13T13:52:22.797Z,17.30
2019-05-13T13:55:01.990Z,17.30
2019-05-13T13:57:25.628Z,17.30
2019-05-13T14:02:36.540Z,17.50
2019-05-13T14:05:05.984Z,17.50
2019-05-13T14:07:09.443Z,17.30
2019-05-13T14:07:13.615Z,17.70
2019-05-13T14:07:42.597Z,17.50
2019-05-13T14:10:11.916Z,17.50
2019-05-13T14:12:41.711Z,17.50
2019-05-13T14:15:11.259Z,17.50
2019-05-13T14:17:41.533Z,17.60
2019-05-13T14:20:10.818Z,17.60
2019-05-13T14:22:41.766Z,17.60
2019-05-13T14:25:11.545Z,17.70
2019-05-13T14:27:42.027Z,17.70
2019-05-13T14:30:11.858Z,17.80
2019-05-13T14:32:42.418Z,17.90
2019-05-13T14:35:12.288Z,17.90
2019-05-13T14:37:40.956Z,17.90
2019-05-13T14:40:12.121Z,17.80
2019-05-13T14:42:42.647Z,17.70
2019-05-13T14:45:12.328Z,17.70
2019-05-13T14:47:41.045Z,17.60
2019-05-13T14:50:12.186Z,17.60
2019-05-13T14:52:41.621Z,17.50
2019-05-13T14:55:11.565Z,17.60
2019-05-13T14:57:47.858Z,17.50
2019-05-13T15:00:25.067Z,17.50
2019-05-13T15:02:57.671Z,17.50
2019-05-13T15:05:44.603Z,17.50
2019-05-13T15:08:14.778Z,17.40
2019-05-13T15:10:43.645Z,17.50
2019-05-13T15:13:16.603Z,17.50
2019-05-13T15:15:48.267Z,17.60
2019-05-13T15:18:16.906Z,17.60
2019-05-13T15:20:47.112Z,17.50
2019-05-13T15:23:22.190Z,17.50
2019-05-13T15:25:53.617Z,17.50
2019-05-13T15:28:31.600Z,17.50
2019-05-13T15:31:00.326Z,17.50
2019-05-13T15:33:36.012Z,17.50
2019-05-13T15:36:13.697Z,17.50
2019-05-13T15:38:42.495Z,17.50
2019-05-13T15:41:17.604Z,17.40
2019-05-13T15:43:51.865Z,17.40
2019-05-13T15:46:28.162Z,17.40
2019-05-13T15:48:58.578Z,17.30
2019-05-13T15:51:31.458Z,17.20
2019-05-13T15:54:04.072Z,17.20
2019-05-13T15:56:32.927Z,17.30
2019-05-13T15:59:01.956Z,17.30
2019-05-13T16:01:30.695Z,17.30
2019-05-13T16:04:02.080Z,17.30
2019-05-13T16:06:32.035Z,17.20
2019-05-13T16:08:59.943Z,17.20
2019-05-13T16:11:32.286Z,17.10
2019-05-13T16:14:02.109Z,17.10
2019-05-13T16:16:32.281Z,17.10
2019-05-13T16:19:01.374Z,17.10
2019-05-13T16:21:31.977Z,17.20
2019-05-13T16:24:02.564Z,17.10
2019-05-13T16:26:31.880Z,17.00
2019-05-13T16:29:02.118Z,17.00
2019-05-13T16:31:31.821Z,17.00
2019-05-13T16:34:01.601Z,16.90
2019-05-13T16:36:31.318Z,16.90
2019-05-13T16:39:02.158Z,16.80
2019-05-13T16:41:31.599Z,16.80
2019-05-13T16:44:00.351Z,16.80
2019-05-13T16:46:28.845Z,16.80
2019-05-13T16:48:57.394Z,16.80
2019-05-13T16:51:25.940Z,16.70
2019-05-13T16:53:54.500Z,16.60
2019-05-13T16:56:29.805Z,16.60
2019-05-13T16:59:01.618Z,16.60
2019-05-13T17:01:25.597Z,16.50
2019-05-13T17:03:54.307Z,16.60
2019-05-13T17:06:22.951Z,16.60
2019-05-13T17:08:52.947Z,16.60
2019-05-13T17:11:26.512Z,16.60
2019-05-13T17:13:55.006Z,16.60
2019-05-13T17:16:23.491Z,16.60
2019-05-13T17:18:55.453Z,16.70
2019-05-13T17:21:31.682Z,16.70
2019-05-13T17:24:07.292Z,16.60
2019-05-13T17:26:35.856Z,16.60
2019-05-13T17:29:04.887Z,16.50
2019-05-13T17:31:33.389Z,16.40
2019-05-13T17:34:01.873Z,16.40
2019-05-13T17:36:32.429Z,16.30
2019-05-13T17:39:01.852Z,16.20
2019-05-13T17:41:32.092Z,16.20
2019-05-13T17:44:02.470Z,16.20
2019-05-13T17:46:32.612Z,16.20
2019-05-13T17:49:01.578Z,16.10
2019-05-13T17:51:30.082Z,16.00
2019-05-13T17:54:01.248Z,16.00
2019-05-13T17:56:32.231Z,16.00
2019-05-13T17:58:59.426Z,15.80
2019-05-13T18:01:27.931Z,15.80
2019-05-13T18:03:56.401Z,15.70
2019-05-13T18:06:24.877Z,15.80
2019-05-13T18:08:54.603Z,15.70
2019-05-13T18:11:23.745Z,15.60
2019-05-13T18:13:52.374Z,15.50
2019-05-13T18:16:21.748Z,15.40
2019-05-13T18:18:52.146Z,15.30
2019-05-13T18:21:20.934Z,15.30
2019-05-13T18:23:51.979Z,15.30
2019-05-13T18:26:21.474Z,15.30
2019-05-13T18:28:51.507Z,15.30
2019-05-13T18:31:20.087Z,15.30
2019-05-13T18:33:52.523Z,15.20
2019-05-13T18:36:22.257Z,15.20
2019-05-13T18:38:51.050Z,15.20
2019-05-13T18:41:21.369Z,15.20
2019-05-13T18:43:52.828Z,15.00
2019-05-13T18:46:21.708Z,14.90
2019-05-13T18:48:58.672Z,14.80
2019-05-13T18:51:25.091Z,14.80
2019-05-13T18:53:53.660Z,14.70
2019-05-13T18:56:22.336Z,14.60
2019-05-13T18:58:50.880Z,14.50
2019-05-13T19:01:21.441Z,14.50
2019-05-13T19:03:49.575Z,14.40
2019-05-13T19:06:18.108Z,14.30
2019-05-13T19:08:46.571Z,14.30
2019-05-13T19:11:15.186Z,14.10
2019-05-13T19:13:43.673Z,14.10
2019-05-13T19:16:12.235Z,14.00
2019-05-13T19:18:42.330Z,13.90
2019-05-13T19:21:11.050Z,13.90
2019-05-13T19:23:41.781Z,13.80
2019-05-13T19:26:11.248Z,13.80
2019-05-13T19:28:40.088Z,13.70
2019-05-13T19:31:08.629Z,13.70
2019-05-13T19:33:37.094Z,13.70
2019-05-13T19:36:05.581Z,13.50
2019-05-13T19:38:34.060Z,13.40
2019-05-13T19:41:02.514Z,13.40
2019-05-13T19:43:31.552Z,13.40
2019-05-13T19:46:01.524Z,13.30
2019-05-13T19:48:32.553Z,13.30
2019-05-13T19:51:03.868Z,13.30
2019-05-13T19:53:34.626Z,13.20
2019-05-13T19:56:03.108Z,13.20
2019-05-13T19:58:32.429Z,13.10
2019-05-13T20:01:01.376Z,13.10
2019-05-13T20:03:31.777Z,13.00
2019-05-13T20:06:04.959Z,12.90
2019-05-13T20:08:33.468Z,12.80
2019-05-13T20:11:02.353Z,12.70
2019-05-13T20:13:30.859Z,12.60
2019-05-13T20:16:01.338Z,12.60
2019-05-13T20:18:31.990Z,12.50
2019-05-13T20:21:01.245Z,12.50
2019-05-13T20:23:32.030Z,12.50
2019-05-13T20:26:01.075Z,12.50
2019-05-13T20:28:31.592Z,12.40
2019-05-13T20:31:01.783Z,12.40
2019-05-13T20:33:31.969Z,12.40
2019-05-13T20:36:01.608Z,12.30
2019-05-13T20:38:31.681Z,12.20
2019-05-13T20:41:01.304Z,12.20
2019-05-13T20:43:32.854Z,12.10
2019-05-13T20:46:02.081Z,12.00
2019-05-13T20:48:32.050Z,12.00
2019-05-13T20:51:02.520Z,12.00
2019-05-13T20:53:33.027Z,12.00
2019-05-13T20:56:01.863Z,11.90
2019-05-13T20:58:31.903Z,11.80
2019-05-13T21:01:02.307Z,11.70
2019-05-13T21:03:31.554Z,11.70
2019-05-13T21:06:00.604Z,11.70
2019-05-13T21:08:31.909Z,11.60
2019-05-13T21:11:02.078Z,11.60
2019-05-13T21:13:31.797Z,11.60
2019-05-13T21:16:21.760Z,11.60
2019-05-13T21:18:50.038Z,11.60
2019-05-13T21:21:18.623Z,11.50
2019-05-13T21:23:47.096Z,11.50
2019-05-13T21:26:15.844Z,11.50
2019-05-13T21:28:44.541Z,11.50
2019-05-13T21:31:13.008Z,11.40
2019-05-13T21:33:41.678Z,11.40
2019-05-13T21:36:12.279Z,11.40
2019-05-13T21:38:40.893Z,11.40
2019-05-13T21:41:11.617Z,11.40
2019-05-13T21:43:41.372Z,11.30
2019-05-13T21:46:11.907Z,11.30
2019-05-13T21:48:41.631Z,11.30
2019-05-13T21:51:13.198Z,11.20
2019-05-13T21:53:41.370Z,11.10
2019-05-13T21:56:12.179Z,11.10
2019-05-13T21:58:41.621Z,11.10
2019-05-13T22:01:10.805Z,11.10
2019-05-13T22:03:39.286Z,11.00
2019-05-13T22:06:08.112Z,11.00
2019-05-13T22:08:36.642Z,10.90
2019-05-13T22:11:05.130Z,10.90
2019-05-13T22:13:33.615Z,10.90
2019-05-13T22:16:02.090Z,10.90
2019-05-13T22:18:31.454Z,10.80
2019-05-13T22:21:01.685Z,10.70
2019-05-13T22:23:32.064Z,10.70
2019-05-13T22:26:01.653Z,10.70
2019-05-13T22:28:31.351Z,10.60
2019-05-13T22:31:01.302Z,10.50
2019-05-13T22:33:32.175Z,10.50
2019-05-13T22:36:01.617Z,10.50
2019-05-13T22:38:32.279Z,10.40
2019-05-13T22:41:01.220Z,10.40
2019-05-13T22:43:32.118Z,10.30
2019-05-13T22:46:00.325Z,10.20
2019-05-13T22:48:31.530Z,10.20
2019-05-13T22:51:01.177Z,10.20
2019-05-13T22:53:31.599Z,10.20
2019-05-13T22:56:00.283Z,10.20
2019-05-13T22:58:28.742Z,10.20
2019-05-13T23:00:57.284Z,10.10
2019-05-13T23:03:32.344Z,10.20
2019-05-13T23:06:03.750Z,10.10
2019-05-13T23:08:32.596Z,10.10
2019-05-13T23:11:02.047Z,10.10
2019-05-13T23:13:31.381Z,10.00
2019-05-13T23:16:02.126Z,9.90
2019-05-13T23:18:31.610Z,9.90
2019-05-13T23:21:02.361Z,9.90
2019-05-13T23:23:30.961Z,9.80
2019-05-13T23:25:59.506Z,9.70
2019-05-13T23:28:27.973Z,9.70
2019-05-13T23:30:56.450Z,9.70
2019-05-13T23:33:25.311Z,9.60
2019-05-13T23:35:53.778Z,9.50
2019-05-13T23:38:22.252Z,9.40
2019-05-13T23:40:51.551Z,9.40
2019-05-13T23:43:21.684Z,9.30
2019-05-13T23:45:51.230Z,9.30
2019-05-13T23:48:21.653Z,9.30
2019-05-13T23:50:52.164Z,9.40
2019-05-13T23:53:21.813Z,9.40
2019-05-13T23:55:52.044Z,9.30
2019-05-13T23:58:21.696Z,9.30
